Time;durP1;ratioP1;P1;durP2;ratioP2;P2;SDS_P1;SDS_P2;PMS_P1;PMS_P2;Temp;Humidity;BMP_temperature;BMP_pressure;BME280_temperature;BME280_humidity;BME280_pressure;Samples;Min_cycle;Max_cycle;Signal;HPM_P1;HPM_P2
2022/09/26 00:02:16;;;;;;;;;;;;;;;20.17;60.20;100362.22;5026945;28;4188;-67
2022/09/26 00:04:42;;;;;;;;;;;;;;;20.18;60.13;100360.09;5021706;28;4234;-67
2022/09/26 00:07:09;;;;;;;;;;;;;;;20.17;60.18;100347.13;5027254;28;5481;-68
2022/09/26 00:09:35;;;;;;;;;;;;;;;20.17;60.19;100347.13;5022823;28;4265;-68
2022/09/26 00:12:03;;;;;;;;;;;;;;;20.16;60.32;100351.38;5032526;28;4311;-68
2022/09/26 00:14:29;;;;;;;;;;;;;;;20.14;60.19;100349.19;5023573;28;4099;-67
2022/09/26 00:16:55;;;;;;;;;;;;;;;20.15;60.20;100344.91;5031041;28;4209;-68
2022/09/26 00:19:22;;;;;;;;;;;;;;;20.17;60.23;100341.38;5028466;28;4245;-67
2022/09/26 00:21:48;;;;;;;;;;;;;;;20.17;60.14;100341.38;5035656;28;4055;-67
2022/09/26 00:24:15;;;;;;;;;;;;;;;20.17;60.07;100338.50;5031475;28;4212;-67
2022/09/26 00:26:41;;;;;;;;;;;;;;;20.17;60.25;100347.84;5030696;28;4234;-67
2022/09/26 00:29:08;;;;;;;;;;;;;;;20.14;60.23;100348.44;5012091;28;4541;-68
2022/09/26 00:31:40;;;;;;;;;;;;;;;20.15;60.22;100339.16;5030185;28;4260;-67
2022/09/26 00:34:07;;;;;;;;;;;;;;;20.16;60.17;100345.63;5018908;28;5348;-67
2022/09/26 00:36:34;;;;;;;;;;;;;;;20.16;60.18;100348.50;5033090;28;4242;-67
2022/09/26 00:39:04;;;;;;;;;;;;;;;20.15;60.11;100338.41;5018438;28;4363;-67
2022/09/26 00:41:31;;;;;;;;;;;;;;;20.16;60.26;100339.88;5031559;28;5138;-67
2022/09/26 00:43:58;;;;;;;;;;;;;;;20.16;60.08;100342.75;5024986;28;4039;-67
2022/09/26 00:46:27;;;;;;;;;;;;;;;20.14;60.34;100337.69;5028608;28;5265;-67
2022/09/26 00:49:01;;;;;;;;;;;;;;;20.14;60.20;100342.69;5034357;28;4219;-67
2022/09/26 00:51:28;;;;;;;;;;;;;;;20.14;60.26;100331.22;5023134;28;5256;-67
2022/09/26 00:53:54;;;;;;;;;;;;;;;20.13;60.22;100329.72;5031056;28;4230;-67
2022/09/26 00:56:24;;;;;;;;;;;;;;;20.14;60.35;100326.19;5030906;28;5331;-67
2022/09/26 00:58:53;;;;;;;;;;;;;;;20.10;60.46;100317.41;5034478;28;4178;-68
2022/09/26 01:01:19;;;;;;;;;;;;;;;20.13;60.27;100323.97;5023253;28;4833;-67
2022/09/26 01:03:46;;;;;;;;;;;;;;;20.12;60.39;100311.00;5028998;28;5217;-67
2022/09/26 01:06:12;;;;;;;;;;;;;;;20.13;60.16;100318.94;5019325;28;5429;-68
2022/09/26 01:08:39;;;;;;;;;;;;;;;20.12;60.25;100316.75;5030993;28;5311;-68
2022/09/26 01:11:06;;;;;;;;;;;;;;;20.11;60.46;100307.38;5018885;28;4456;-68
2022/09/26 01:13:33;;;;;;;;;;;;;;;20.09;60.34;100302.31;5017914;28;4171;-68
2022/09/26 01:15:59;;;;;;;;;;;;;;;20.09;60.41;100302.31;5017108;28;4112;-68
2022/09/26 01:18:26;;;;;;;;;;;;;;;20.11;60.46;100301.63;5031580;28;4484;-68
2022/09/26 01:20:57;;;;;;;;;;;;;;;20.11;60.49;100298.75;5033327;28;3998;-68
2022/09/26 01:23:29;;;;;;;;;;;;;;;20.13;60.34;100293.06;5031905;28;4474;-68
2022/09/26 01:26:04;;;;;;;;;;;;;;;20.10;60.41;100300.16;5028412;28;4608;-68
2022/09/26 01:28:43;;;;;;;;;;;;;;;20.09;60.60;100299.44;5009599;28;4096;-69
2022/09/26 01:31:21;;;;;;;;;;;;;;;20.11;60.26;100289.38;5010329;28;4484;-68
2022/09/26 01:33:48;;;;;;;;;;;;;;;20.09;60.51;100281.44;5005828;28;6402;-69
2022/09/26 01:36:18;;;;;;;;;;;;;;;20.09;60.37;100279.31;5029129;28;4176;-68
2022/09/26 01:39:08;;;;;;;;;;;;;;;20.11;60.30;100269.28;5012543;28;4245;-69
2022/09/26 01:41:34;;;;;;;;;;;;;;;20.11;60.38;100269.28;5019536;28;4140;-69
2022/09/26 01:44:14;;;;;;;;;;;;;;;20.09;60.44;100267.81;5047515;28;5295;-68
2022/09/26 01:46:50;;;;;;;;;;;;;;;20.09;60.55;100262.06;5050326;28;5186;-68
2022/09/26 01:49:20;;;;;;;;;;;;;;;20.08;60.49;100259.84;5025409;28;5258;-68
2022/09/26 01:51:52;;;;;;;;;;;;;;;20.09;60.45;100264.94;5016927;28;4458;-69
2022/09/26 01:54:41;;;;;;;;;;;;;;;20.08;60.64;100263.44;5015819;28;4270;-69
2022/09/26 01:57:15;;;;;;;;;;;;;;;20.08;60.35;100257.69;5014108;28;4321;-69
2022/09/26 01:59:46;;;;;;;;;;;;;;;20.07;60.47;100264.84;5041755;28;5324;-69
2022/09/26 02:02:20;;;;;;;;;;;;;;;20.09;60.41;100255.56;5006545;28;4238;-69
2022/09/26 02:04:47;;;;;;;;;;;;;;;20.09;60.55;100253.44;5029179;28;5118;-69
2022/09/26 02:07:20;;;;;;;;;;;;;;;20.08;60.54;100260.56;5015243;28;4402;-69
2022/09/26 02:09:47;;;;;;;;;;;;;;;20.09;60.39;100261.31;5012628;28;4271;-69
2022/09/26 02:12:16;;;;;;;;;;;;;;;20.07;60.50;100264.84;5009799;28;4252;-69
2022/09/26 02:14:43;;;;;;;;;;;;;;;20.06;60.56;100251.88;5018533;28;4225;-68
2022/09/26 02:17:10;;;;;;;;;;;;;;;20.07;60.56;100253.34;5025468;28;4183;-69
2022/09/26 02:19:39;;;;;;;;;;;;;;;20.05;60.71;100247.53;5033880;28;4202;-69
2022/09/26 02:22:06;;;;;;;;;;;;;;;20.06;60.52;100251.88;5028704;28;4435;-68
2022/09/26 02:24:32;;;;;;;;;;;;;;;20.08;60.65;100249.06;5029950;28;6070;-69
2022/09/26 02:27:00;;;;;;;;;;;;;;;20.07;60.66;100244.72;5028669;28;5316;-68
2022/09/26 02:29:26;;;;;;;;;;;;;;;20.07;60.66;100232.50;5031737;28;4228;-68
2022/09/26 02:31:55;;;;;;;;;;;;;;;20.06;60.72;100237.50;5020561;28;4222;-68
2022/09/26 02:34:22;;;;;;;;;;;;;;;20.06;60.60;100231.75;5010795;28;4362;-68
2022/09/26 02:36:49;;;;;;;;;;;;;;;20.05;60.90;100227.41;5008326;28;4160;-68
2022/09/26 02:39:16;;;;;;;;;;;;;;;20.05;60.79;100223.81;5022850;28;4148;-68
2022/09/26 02:42:24;;;;;;;;;;;;;;;20.05;60.76;100221.66;5032301;28;5309;-68
2022/09/26 02:44:54;;;;;;;;;;;;;;;20.09;60.64;100221.09;5031054;28;4148;-68
2022/09/26 02:47:25;;;;;;;;;;;;;;;20.12;60.56;100221.91;5030844;28;4178;-68
2022/09/26 02:49:55;;;;;;;;;;;;;;;20.11;60.27;100212.53;5030205;28;4245;-68
2022/09/26 02:52:28;;;;;;;;;;;;;;;20.16;60.27;100207.66;5030053;28;4171;-68
2022/09/26 02:54:57;;;;;;;;;;;;;;;20.18;60.56;100210.59;5009151;28;4250;-68
2022/09/26 02:57:39;;;;;;;;;;;;;;;20.19;60.47;100212.09;5013871;28;4223;-68
2022/09/26 03:00:10;;;;;;;;;;;;;;;20.20;60.57;100213.56;5029205;28;4225;-69
2022/09/26 03:02:38;;;;;;;;;;;;;;;20.20;60.87;100207.81;5023007;28;4379;-68
2022/09/26 03:05:22;;;;;;;;;;;;;;;20.20;60.26;100202.81;5016950;28;4306;-68
2022/09/26 03:08:06;;;;;;;;;;;;;;;20.22;60.27;100211.50;4996185;28;4046;-68
2022/09/26 03:10:32;;;;;;;;;;;;;;;20.23;60.65;100218.00;5032547;28;4161;-69
2022/09/26 03:13:00;;;;;;;;;;;;;;;20.22;60.41;100217.25;5030644;28;4140;-68
2022/09/26 03:15:26;;;;;;;;;;;;;;;20.22;60.55;100214.38;5015343;28;4199;-69
2022/09/26 03:17:52;;;;;;;;;;;;;;;20.22;60.35;100216.50;5025860;28;4425;-68
2022/09/26 03:20:20;;;;;;;;;;;;;;;20.22;60.42;100217.25;5009336;28;4184;-68
2022/09/26 03:22:48;;;;;;;;;;;;;;;20.22;60.15;100205.75;5009185;28;5275;-68
2022/09/26 03:25:22;;;;;;;;;;;;;;;20.24;60.28;100207.97;5011013;28;4224;-68
2022/09/26 03:28:01;;;;;;;;;;;;;;;20.22;60.29;100200.00;5026576;28;4184;-68
2022/09/26 03:30:28;;;;;;;;;;;;;;;20.21;60.50;100204.28;5026832;28;4224;-68
2022/09/26 03:33:18;;;;;;;;;;;;;;;20.22;60.22;100200.00;5031029;28;5416;-68
2022/09/26 03:35:45;;;;;;;;;;;;;;;20.24;60.37;100190.72;5032534;28;4272;-68
2022/09/26 03:38:12;;;;;;;;;;;;;;;20.24;60.71;100193.59;5020503;28;4296;-68
2022/09/26 03:40:45;;;;;;;;;;;;;;;20.24;60.47;100191.44;5015697;28;5285;-68
2022/09/26 03:43:44;;;;;;;;;;;;;;;20.26;60.70;100193.66;5051209;28;4207;-69
2022/09/26 03:46:12;;;;;;;;;;;;;;;20.26;60.53;100182.16;5048600;28;4165;-68
2022/09/26 03:48:38;;;;;;;;;;;;;;;20.27;60.61;100177.88;5035890;28;4155;-69
2022/09/26 03:51:05;;;;;;;;;;;;;;;20.28;60.39;100185.13;5023929;28;4119;-68
2022/09/26 03:53:32;;;;;;;;;;;;;;;20.29;60.33;100180.81;5028556;28;4021;-68
2022/09/26 03:56:05;;;;;;;;;;;;;;;20.29;60.28;100180.81;5028200;28;4090;-68
2022/09/26 03:58:31;;;;;;;;;;;;;;;20.29;60.16;100172.19;5034140;28;4383;-69
2022/09/26 04:01:01;;;;;;;;;;;;;;;20.29;60.10;100172.19;5029713;28;4132;-68
2022/09/26 04:03:28;;;;;;;;;;;;;;;20.27;60.30;100175.75;5027326;28;4005;-68
2022/09/26 04:05:54;;;;;;;;;;;;;;;20.28;60.24;100167.88;5033251;28;4229;-68
2022/09/26 04:08:21;;;;;;;;;;;;;;;20.28;60.34;100156.38;5033424;28;4623;-68
2022/09/26 04:10:48;;;;;;;;;;;;;;;20.26;60.23;100159.91;5021977;28;6408;-68
2022/09/26 04:13:14;;;;;;;;;;;;;;;20.26;60.32;100153.41;5032934;28;4242;-68
2022/09/26 04:16:01;;;;;;;;;;;;;;;20.26;60.53;100156.28;5018114;28;4282;-68
2022/09/26 04:18:27;;;;;;;;;;;;;;;20.24;60.51;100144.72;5031622;28;5262;-69
2022/09/26 04:20:57;;;;;;;;;;;;;;;20.22;60.55;100148.25;5013347;28;4070;-67
2022/09/26 04:23:25;;;;;;;;;;;;;;;20.25;60.32;100154.84;5029371;28;4191;-67
2022/09/26 04:25:52;;;;;;;;;;;;;;;20.26;60.37;100147.66;5026249;28;4206;-68
2022/09/26 04:28:18;;;;;;;;;;;;;;;20.24;60.45;100139.69;5017067;28;4253;-68
2022/09/26 04:30:45;;;;;;;;;;;;;;;20.24;60.35;100138.97;5026165;28;4581;-68
2022/09/26 04:33:11;;;;;;;;;;;;;;;20.22;60.46;100142.50;5042415;28;4339;-68
2022/09/26 04:35:43;;;;;;;;;;;;;;;20.22;60.63;100145.38;5012861;28;4163;-67
2022/09/26 04:38:10;;;;;;;;;;;;;;;20.23;60.49;100146.13;5010393;28;4507;-68
2022/09/26 04:40:37;;;;;;;;;;;;;;;20.23;60.45;100149.00;5035101;28;4327;-67
2022/09/26 04:43:08;;;;;;;;;;;;;;;20.23;60.57;100146.13;5025300;28;4223;-69
2022/09/26 04:45:35;;;;;;;;;;;;;;;20.23;60.56;100146.13;5014900;28;5555;-69
2022/09/26 04:48:02;;;;;;;;;;;;;;;20.22;60.58;100138.91;5011948;28;5459;-69
2022/09/26 04:51:07;;;;;;;;;;;;;;;20.22;60.64;100141.78;5047364;28;4184;-69
2022/09/26 04:53:34;;;;;;;;;;;;;;;20.22;60.41;100136.03;5052333;28;4179;-70
2022/09/26 04:56:14;;;;;;;;;;;;;;;20.21;60.48;100134.56;5045532;28;4195;-69
2022/09/26 04:58:40;;;;;;;;;;;;;;;20.18;60.53;100130.88;5043011;28;4261;-69
2022/09/26 05:01:09;;;;;;;;;;;;;;;20.22;60.41;100138.91;5007610;28;4632;-73
2022/09/26 05:03:49;;;;;;;;;;;;;;;20.26;60.26;100136.16;5019060;28;4194;-68
2022/09/26 05:06:16;;;;;;;;;;;;;;;20.25;60.22;100135.44;5011423;28;4160;-70
2022/09/26 05:08:45;;;;;;;;;;;;;;;20.26;60.52;100130.41;5016713;28;4286;-70
2022/09/26 05:11:12;;;;;;;;;;;;;;;20.25;60.48;100131.84;5028661;28;4216;-68
2022/09/26 05:13:39;;;;;;;;;;;;;;;20.26;60.59;100136.16;5021879;28;4235;-69
2022/09/26 05:16:07;;;;;;;;;;;;;;;20.16;60.16;100142.31;5022393;28;4076;-74
2022/09/26 05:18:34;;;;;;;;;;;;;;;20.07;59.51;100138.41;5007739;28;4596;-69
2022/09/26 05:21:01;;;;;;;;;;;;;;;20.00;58.97;100130.97;5026123;28;4245;-69
2022/09/26 05:26:23;;;;;;;;;;;;;;;19.67;55.41;100132.59;5019675;28;4261;-70
2022/09/26 05:28:51;;;;;;;;;;;;;;;19.82;55.10;100136.03;5005454;28;4090;-71
2022/09/26 05:31:23;;;;;;;;;;;;;;;20.04;58.12;100128.25;4999239;28;4193;-71
2022/09/26 05:33:50;;;;;;;;;;;;;;;20.14;59.20;100130.00;5023342;28;4256;-72
2022/09/26 05:36:17;;;;;;;;;;;;;;;20.18;58.90;100125.13;5024804;28;5432;-70
2022/09/26 05:38:44;;;;;;;;;;;;;;;20.20;59.14;100133.06;5022054;28;4176;-71
2022/09/26 05:41:11;;;;;;;;;;;;;;;20.17;60.15;100128.66;5014252;28;4225;-72
2022/09/26 05:43:37;;;;;;;;;;;;;;;20.13;58.44;100122.75;5017792;28;4282;-73
2022/09/26 05:46:08;;;;;;;;;;;;;;;19.97;57.40;100117.91;5011729;28;4526;-68
2022/09/26 05:48:38;;;;;;;;;;;;;;;19.64;54.59;100110.94;5026525;28;4252;-65
2022/09/26 05:51:12;;;;;;;;;;;;;;;19.34;54.36;100118.41;5023233;28;4249;-72
2022/09/26 05:53:41;;;;;;;;;;;;;;;19.32;54.49;100116.19;5029230;28;4245;-71
2022/09/26 05:56:08;;;;;;;;;;;;;;;19.51;54.27;100111.88;5015301;28;4526;-71
2022/09/26 05:59:06;;;;;;;;;;;;;;;19.79;54.76;100112.25;5030254;28;4353;-70
2022/09/26 06:01:33;;;;;;;;;;;;;;;19.89;54.46;100111.88;5031626;28;4251;-71
2022/09/26 06:04:09;;;;;;;;;;;;;;;19.94;54.59;100107.75;5023652;28;5577;-71
2022/09/26 06:06:52;;;;;;;;;;;;;;;19.97;55.98;100100.66;5027723;28;4234;-71
2022/09/26 06:09:19;;;;;;;;;;;;;;;19.98;57.25;100113.63;5029055;28;4373;-69
2022/09/26 06:12:05;;;;;;;;;;;;;;;20.00;57.24;100110.13;5026834;28;4247;-68
2022/09/26 06:14:31;;;;;;;;;;;;;;;19.99;57.50;100109.34;5025954;28;4210;-69
2022/09/26 06:17:01;;;;;;;;;;;;;;;20.01;57.94;100102.94;5030834;28;4298;-69
2022/09/26 06:19:27;;;;;;;;;;;;;;;20.02;57.55;100108.03;5030832;28;6356;-70
2022/09/26 06:21:54;;;;;;;;;;;;;;;20.02;57.88;100110.91;5015495;28;4176;-69
2022/09/26 06:24:21;;;;;;;;;;;;;;;20.06;57.58;100113.19;5024954;28;5472;-72
2022/09/26 06:26:51;;;;;;;;;;;;;;;20.06;57.56;100113.91;5024719;28;4227;-71
2022/09/26 06:29:18;;;;;;;;;;;;;;;20.06;57.81;100108.16;5028413;28;4188;-72
2022/09/26 06:31:45;;;;;;;;;;;;;;;20.08;58.35;100105.38;5029262;28;5334;-71
2022/09/26 06:34:11;;;;;;;;;;;;;;;20.08;58.69;100102.50;5032983;28;4376;-73
2022/09/26 06:36:57;;;;;;;;;;;;;;;20.06;58.36;100099.53;5029005;28;4077;-71
2022/09/26 06:39:34;;;;;;;;;;;;;;;20.08;58.89;100091.00;5025076;28;5300;-71
2022/09/26 06:42:01;;;;;;;;;;;;;;;20.09;58.92;100097.50;5024441;28;4011;-71
2022/09/26 06:44:48;;;;;;;;;;;;;;;20.08;58.07;100087.38;5020910;28;5357;-69
2022/09/26 06:47:23;;;;;;;;;;;;;;;20.12;58.76;100093.28;5026240;28;4235;-73
2022/09/26 06:50:23;;;;;;;;;;;;;;;20.12;58.95;100093.28;5015044;28;4231;-70
2022/09/26 06:52:53;;;;;;;;;;;;;;;20.13;59.50;100094.03;5029468;28;5576;-70
2022/09/26 06:55:21;;;;;;;;;;;;;;;20.14;58.67;100084.00;5026736;28;4193;-70
2022/09/26 06:57:47;;;;;;;;;;;;;;;20.16;58.87;100081.19;5024778;28;4251;-70
2022/09/26 07:00:16;;;;;;;;;;;;;;;20.17;59.43;100076.91;5033231;28;4204;-74
2022/09/26 07:03:01;;;;;;;;;;;;;;;20.19;59.06;100077.72;5028316;28;4246;-71
2022/09/26 07:05:45;;;;;;;;;;;;;;;20.20;58.79;100078.44;5024420;28;5305;-65
2022/09/26 07:08:12;;;;;;;;;;;;;;;20.20;59.04;100081.31;5029813;28;4183;-71
2022/09/26 07:10:39;;;;;;;;;;;;;;;20.20;59.26;100073.47;5030337;28;4094;-71
2022/09/26 07:13:10;;;;;;;;;;;;;;;20.21;59.23;100077.06;5028092;28;5222;-71
2022/09/26 07:15:36;;;;;;;;;;;;;;;20.21;59.57;100077.78;5028431;28;4181;-63
2022/09/26 07:18:18;;;;;;;;;;;;;;;19.90;56.92;100078.84;5022618;28;4408;-72
2022/09/26 07:21:04;;;;;;;;;;;;;;;19.75;56.11;100074.75;5024782;28;5473;-77
2022/09/26 07:24:01;;;;;;;;;;;;;;;19.98;58.31;100079.16;5029189;28;5524;-72
2022/09/26 07:26:27;;;;;;;;;;;;;;;20.06;58.47;100072.94;5032700;28;5281;-72
2022/09/26 07:28:54;;;;;;;;;;;;;;;20.12;57.39;100069.56;5026588;28;4363;-73
2022/09/26 07:31:23;;;;;;;;;;;;;;;20.16;57.30;100069.69;5020133;28;4282;-71
2022/09/26 07:34:10;;;;;;;;;;;;;;;20.19;57.29;100074.13;5023090;28;5217;-71
2022/09/26 07:36:44;;;;;;;;;;;;;;;20.19;57.61;100068.38;5031979;28;4253;-71
2022/09/26 07:39:11;;;;;;;;;;;;;;;20.18;57.42;100067.63;5027120;28;5233;-71
2022/09/26 07:41:38;;;;;;;;;;;;;;;20.20;57.50;100064.84;5029522;28;5112;-72
2022/09/26 07:44:05;;;;;;;;;;;;;;;20.19;57.72;100062.63;5032291;28;4114;-72
2022/09/26 07:52:33;;;;;;;;;;;;;;;20.20;57.93;100047.59;5049472;28;4203;-72
2022/09/26 07:55:18;;;;;;;;;;;;;;;20.22;57.83;100055.53;5054909;28;4250;-72
2022/09/26 07:57:58;;;;;;;;;;;;;;;20.21;57.90;100054.06;5036275;28;4176;-71
2022/09/26 08:00:49;;;;;;;;;;;;;;;20.22;58.09;100052.66;5047124;28;5206;-71
2022/09/26 08:03:34;;;;;;;;;;;;;;;20.22;57.87;100049.78;5049003;28;4193;-72
2022/09/26 08:06:13;;;;;;;;;;;;;;;20.21;58.00;100049.06;5049609;28;5179;-72
2022/09/26 08:08:42;;;;;;;;;;;;;;;20.21;58.08;100054.81;5051477;28;4195;-71
2022/09/26 08:11:38;;;;;;;;;;;;;;;20.21;57.96;100054.06;5034839;28;4235;-72
2022/09/26 08:14:28;;;;;;;;;;;;;;;20.22;57.97;100049.78;5037184;28;4266;-73
2022/09/26 08:16:59;;;;;;;;;;;;;;;20.21;58.32;100059.81;5054135;28;5335;-77
2022/09/26 08:19:26;;;;;;;;;;;;;;;20.22;58.33;100056.25;5048121;28;5546;-76
2022/09/26 08:21:53;;;;;;;;;;;;;;;20.22;58.39;100047.63;5047936;28;4137;-76
2022/09/26 08:24:19;;;;;;;;;;;;;;;20.22;58.49;100049.78;5051144;28;4168;-76
2022/09/26 08:27:02;;;;;;;;;;;;;;;20.24;58.50;100049.84;5054509;28;5362;-76
2022/09/26 08:29:32;;;;;;;;;;;;;;;20.24;58.47;100044.09;5048972;28;4248;-75
2022/09/26 08:32:02;;;;;;;;;;;;;;;20.24;58.37;100044.09;5040150;28;4232;-76
2022/09/26 08:34:34;;;;;;;;;;;;;;;20.24;58.73;100049.84;5047768;28;4310;-79
2022/09/26 08:37:19;;;;;;;;;;;;;;;20.24;58.42;100049.84;5044078;28;4070;-68
2022/09/26 08:40:06;;;;;;;;;;;;;;;20.26;58.48;100044.19;5052454;28;4898;-69
2022/09/26 08:43:10;;;;;;;;;;;;;;;20.27;58.06;100045.63;5044574;28;4126;-67
2022/09/26 08:49:23;;;;;;;;;;;;;;;20.24;58.60;100052.72;5041377;28;4678;-68
2022/09/26 08:51:51;;;;;;;;;;;;;;;20.24;58.22;100046.97;5035632;28;4094;-68
2022/09/26 08:54:33;;;;;;;;;;;;;;;20.26;57.96;100044.19;5067151;28;4480;-68
2022/09/26 08:57:13;;;;;;;;;;;;;;;20.26;57.92;100044.19;5038355;28;4364;-67
2022/09/26 08:59:40;;;;;;;;;;;;;;;20.28;58.11;100032.75;5052939;28;3973;-67
2022/09/26 09:02:22;;;;;;;;;;;;;;;20.30;58.26;100035.69;5047981;28;4747;-68
2022/09/26 09:05:03;;;;;;;;;;;;;;;20.32;58.42;100024.25;5048108;28;4409;-66
2022/09/26 09:07:32;;;;;;;;;;;;;;;20.31;58.73;100022.78;5051981;28;4583;-66
2022/09/26 09:10:10;;;;;;;;;;;;;;;20.34;58.51;100012.06;5031964;28;4032;-66
2022/09/26 09:12:53;;;;;;;;;;;;;;;20.34;58.21;100009.19;5021140;28;6227;-66
2022/09/26 09:16:02;;;;;;;;;;;;;;;20.35;58.76;100010.69;5037425;28;4276;-66
2022/09/26 09:18:49;;;;;;;;;;;;;;;20.37;58.61;100014.38;5051882;28;5557;-65
2022/09/26 09:21:28;;;;;;;;;;;;;;;20.41;58.45;100003.00;5039382;28;4807;-66
2022/09/26 09:24:09;;;;;;;;;;;;;;;20.42;58.58;100001.59;5045239;28;4358;-69
2022/09/26 09:27:04;;;;;;;;;;;;;;;20.41;58.44;99997.25;5041496;28;4191;-65
2022/09/26 09:30:20;;;;;;;;;;;;;;;20.30;57.22;99992.56;5013200;28;5447;-65
2022/09/26 09:33:13;;;;;;;;;;;;;;;20.31;57.86;99994.03;5046750;28;4167;-66
2022/09/26 09:35:46;;;;;;;;;;;;;;;20.31;58.04;99988.28;5037159;28;4245;-65
2022/09/26 09:38:32;;;;;;;;;;;;;;;20.32;58.44;99995.50;5049425;28;6040;-66
2022/09/26 09:41:04;;;;;;;;;;;;;;;20.32;58.64;99984.00;5055068;28;4142;-65
2022/09/26 09:43:47;;;;;;;;;;;;;;;20.33;58.57;99991.22;5049687;28;4141;-65
2022/09/26 09:46:16;;;;;;;;;;;;;;;20.33;58.73;99987.63;5016218;28;4611;-66
2022/09/26 09:48:45;;;;;;;;;;;;;;;20.31;58.64;99973.91;5014309;28;4242;-65
2022/09/26 09:51:20;;;;;;;;;;;;;;;20.33;58.71;99984.75;5009112;28;4230;-66
2022/09/26 09:53:54;;;;;;;;;;;;;;;20.31;58.96;99973.91;5012596;28;4157;-65
2022/09/26 09:56:27;;;;;;;;;;;;;;;20.32;59.02;99975.38;5011237;28;4331;-66
2022/09/26 09:59:11;;;;;;;;;;;;;;;20.32;58.78;99966.75;5029754;28;4253;-65
2022/09/26 10:02:11;;;;;;;;;;;;;;;20.33;57.74;99962.47;5025426;28;4845;-66
2022/09/26 10:04:37;;;;;;;;;;;;;;;20.42;57.52;99967.06;5025322;28;4172;-64
2022/09/26 10:07:04;;;;;;;;;;;;;;;20.40;56.67;99961.25;5026277;28;4151;-71
2022/09/26 10:09:36;;;;;;;;;;;;;;;20.34;56.01;99952.47;5029217;28;4439;-73
2022/09/26 10:12:27;;;;;;;;;;;;;;;20.28;54.36;99949.38;5024460;28;4669;-68
2022/09/26 10:15:18;;;;;;;;;;;;;;;20.26;53.24;99957.94;5020430;28;4202;-67
2022/09/26 10:18:05;;;;;;;;;;;;;;;20.19;51.98;99947.66;4994802;28;4951;-72
2022/09/26 10:20:57;;;;;;;;;;;;;;;20.24;53.31;99943.50;5035516;28;4209;-72
2022/09/26 10:23:29;;;;;;;;;;;;;;;20.26;54.23;99935.66;5047586;28;4753;-72
2022/09/26 10:25:59;;;;;;;;;;;;;;;20.27;55.03;99936.41;5033495;28;4215;-70
2022/09/26 10:28:53;;;;;;;;;;;;;;;20.28;55.51;99937.88;5020142;28;4503;-69
2022/09/26 10:31:29;;;;;;;;;;;;;;;20.28;56.01;99920.63;5013382;28;5535;-70
2022/09/26 10:34:24;;;;;;;;;;;;;;;20.27;56.25;99925.66;5041431;28;4266;-70
2022/09/26 10:36:50;;;;;;;;;;;;;;;20.28;56.54;99932.13;5048198;28;4091;-70
2022/09/26 10:42:12;;;;;;;;;;;;;;;20.28;56.91;99926.38;5028078;28;4322;-70
2022/09/26 10:44:38;;;;;;;;;;;;;;;20.27;56.92;99925.66;5026724;28;4169;-70
2022/09/26 10:47:07;;;;;;;;;;;;;;;20.27;56.95;99927.78;5021485;28;4076;-70
2022/09/26 10:49:57;;;;;;;;;;;;;;;20.27;57.36;99927.78;5024877;28;4272;-81
2022/09/26 10:52:39;;;;;;;;;;;;;;;20.27;57.20;99933.53;5029123;28;5343;-70
2022/09/26 10:55:15;;;;;;;;;;;;;;;20.26;57.47;99923.44;5028793;28;5130;-71
2022/09/26 10:57:44;;;;;;;;;;;;;;;20.28;57.31;99920.63;5027217;28;4256;-70
2022/09/26 11:00:30;;;;;;;;;;;;;;;20.28;57.29;99909.84;5031227;28;4271;-71
2022/09/26 11:02:58;;;;;;;;;;;;;;;20.28;57.40;99906.97;5027175;28;5332;-72
2022/09/26 11:08:14;;;;;;;;;;;;;;;20.27;57.48;99896.91;5014238;28;4270;-71
2022/09/26 11:10:55;;;;;;;;;;;;;;;20.28;57.59;99891.88;5010435;28;4232;-67
2022/09/26 11:13:38;;;;;;;;;;;;;;;20.25;57.09;99888.22;5010976;28;4198;-69
2022/09/26 11:16:12;;;;;;;;;;;;;;;20.28;56.91;99875.38;5022212;28;5204;-73
2022/09/26 11:18:52;;;;;;;;;;;;;;;20.28;57.32;99878.25;5023425;28;4083;-74
2022/09/26 11:21:38;;;;;;;;;;;;;;;20.28;57.37;99874.63;5009724;28;4184;-75
2022/09/26 11:24:10;;;;;;;;;;;;;;;20.31;56.98;99879.03;5027288;28;4180;-75
2022/09/26 11:26:52;;;;;;;;;;;;;;;20.30;57.30;99872.56;5011731;28;4159;-75
2022/09/26 11:29:22;;;;;;;;;;;;;;;20.31;57.65;99879.03;5021274;28;5301;-75
2022/09/26 11:32:03;;;;;;;;;;;;;;;20.29;57.70;99887.59;5026510;28;4068;-75
2022/09/26 11:35:02;;;;;;;;;;;;;;;20.29;57.78;99867.47;4988435;28;4174;-75
2022/09/26 11:37:36;;;;;;;;;;;;;;;20.29;57.65;99879.72;5029245;28;4241;-75
2022/09/26 11:40:08;;;;;;;;;;;;;;;20.27;57.69;99873.16;5013730;28;5282;-75
2022/09/26 11:43:03;;;;;;;;;;;;;;;20.26;57.79;99878.16;5024982;28;4161;-75
2022/09/26 11:45:44;;;;;;;;;;;;;;;20.26;57.72;99860.19;4997334;28;5140;-75
2022/09/26 11:48:38;;;;;;;;;;;;;;;20.26;57.63;99860.19;5040136;28;4235;-74
2022/09/26 11:51:36;;;;;;;;;;;;;;;20.27;57.92;99858.78;5019394;28;4038;-74
2022/09/26 11:54:16;;;;;;;;;;;;;;;20.26;58.00;99848.69;5011274;28;4560;-74
2022/09/26 11:57:01;;;;;;;;;;;;;;;20.26;58.03;99849.44;5028421;28;4215;-78
2022/09/26 11:59:27;;;;;;;;;;;;;;;20.24;57.94;99837.84;5027145;28;4218;-77
2022/09/26 12:02:14;;;;;;;;;;;;;;;20.26;57.76;99831.44;5022094;28;4167;-78
2022/09/26 12:04:41;;;;;;;;;;;;;;;20.26;57.93;99832.19;5024384;28;5304;-77
2022/09/26 12:07:21;;;;;;;;;;;;;;;20.26;57.85;99831.44;5027160;28;4279;-77
2022/09/26 12:10:06;;;;;;;;;;;;;;;20.26;58.16;99825.69;5027304;28;4270;-77
2022/09/26 12:12:40;;;;;;;;;;;;;;;20.25;58.01;99827.84;5024048;28;4216;-76
2022/09/26 12:15:25;;;;;;;;;;;;;;;20.26;57.90;99826.44;5024223;28;5241;-77
2022/09/26 12:17:55;;;;;;;;;;;;;;;20.26;57.80;99822.81;5024083;28;4172;-77
2022/09/26 12:20:24;;;;;;;;;;;;;;;20.27;58.04;99821.41;5031534;28;4179;-76
2022/09/26 12:22:55;;;;;;;;;;;;;;;20.25;58.09;99813.47;5032311;28;4223;-76
2022/09/26 12:25:28;;;;;;;;;;;;;;;20.25;58.09;99813.47;5003473;28;4131;-76
2022/09/26 12:28:10;;;;;;;;;;;;;;;20.26;58.00;99809.19;5025526;28;4160;-76
2022/09/26 12:30:39;;;;;;;;;;;;;;;20.27;58.13;99809.91;5025774;28;4115;-75
2022/09/26 12:33:14;;;;;;;;;;;;;;;20.26;58.02;99806.31;5029042;28;4549;-74
2022/09/26 12:35:46;;;;;;;;;;;;;;;20.27;58.25;99804.16;5031189;28;4127;-74
2022/09/26 12:38:31;;;;;;;;;;;;;;;20.26;58.25;99791.19;5030938;28;4133;-75
2022/09/26 12:41:13;;;;;;;;;;;;;;;20.26;58.00;99796.94;5017087;28;4554;-76
2022/09/26 12:43:43;;;;;;;;;;;;;;;20.26;58.31;99785.47;5031453;28;4490;-75
2022/09/26 12:46:28;;;;;;;;;;;;;;;20.26;58.09;99788.34;5024119;28;4370;-69
2022/09/26 12:49:02;;;;;;;;;;;;;;;20.25;58.08;99769.63;5026913;28;4460;-74
2022/09/26 12:51:41;;;;;;;;;;;;;;;20.26;58.12;99779.72;5023514;28;5432;-73
2022/09/26 12:54:07;;;;;;;;;;;;;;;20.26;58.02;99768.22;5027528;28;4385;-73
2022/09/26 12:56:39;;;;;;;;;;;;;;;20.26;58.17;99771.81;5024349;28;4336;-72
2022/09/26 12:59:25;;;;;;;;;;;;;;;20.26;58.08;99766.06;5024605;28;4199;-71
2022/09/26 13:02:09;;;;;;;;;;;;;;;20.26;58.09;99760.31;5027852;28;4128;-70
2022/09/26 13:04:55;;;;;;;;;;;;;;;20.26;58.04;99762.47;5015676;28;7508;-71
2022/09/26 13:07:27;;;;;;;;;;;;;;;20.27;58.22;99740.91;5027489;28;4512;-71
2022/09/26 13:10:01;;;;;;;;;;;;;;;20.26;58.03;99745.94;5027721;28;4249;-66
2022/09/26 13:12:50;;;;;;;;;;;;;;;20.28;58.23;99753.91;5027077;28;5295;-71
2022/09/26 13:15:19;;;;;;;;;;;;;;;20.27;58.31;99747.41;5006672;28;4289;-72
2022/09/26 13:17:47;;;;;;;;;;;;;;;20.27;58.03;99746.66;5022541;28;4099;-72
2022/09/26 13:20:28;;;;;;;;;;;;;;;20.27;58.12;99746.66;5027402;28;5191;-70
2022/09/26 13:22:57;;;;;;;;;;;;;;;20.25;58.11;99733.00;5021850;28;4219;-71
2022/09/26 13:25:43;;;;;;;;;;;;;;;20.26;58.23;99733.72;5021619;28;5299;-71
2022/09/26 13:28:32;;;;;;;;;;;;;;;20.26;58.38;99736.59;5023361;28;5296;-71
2022/09/26 13:31:00;;;;;;;;;;;;;;;20.27;58.09;99732.28;5027884;28;5270;-72
2022/09/26 13:33:44;;;;;;;;;;;;;;;20.26;58.42;99733.72;5023733;28;5630;-72
2022/09/26 13:36:10;;;;;;;;;;;;;;;20.27;58.27;99729.41;5025612;28;4416;-71
2022/09/26 13:38:40;;;;;;;;;;;;;;;20.26;58.18;99725.81;5026347;28;4248;-71
2022/09/26 13:41:18;;;;;;;;;;;;;;;20.27;58.38;99723.66;5031559;28;6283;-72
2022/09/26 13:43:47;;;;;;;;;;;;;;;20.26;58.30;99722.22;5026553;28;5289;-71
2022/09/26 13:46:30;;;;;;;;;;;;;;;20.26;58.33;99717.19;5026042;28;4259;-71